createdAt,value
2023-04-25T00:00:28.399Z,4.70
2023-04-25T00:05:52.952Z,5.20
2023-04-25T00:10:56.321Z,4.10
2023-04-25T00:16:01.395Z,4.70
2023-04-25T00:21:07.452Z,4.60
2023-04-25T00:26:10.756Z,4.40
2023-04-25T00:31:14.630Z,4.60
2023-04-25T00:41:22.330Z,4.40
2023-04-25T00:46:25.677Z,4.80
2023-04-25T00:51:29.869Z,4.20
2023-04-25T01:01:37.109Z,5.30
2023-04-25T01:06:41.749Z,4.60
2023-04-25T01:11:45.069Z,4.30
2023-04-25T01:16:49.371Z,3.90
2023-04-25T01:21:53.111Z,3.80
2023-04-25T01:27:01.475Z,3.90
2023-04-25T01:32:06.861Z,4.40
2023-04-25T01:37:10.218Z,4.40
2023-04-25T01:42:14.447Z,4.60
2023-04-25T01:47:17.962Z,4.30
2023-04-25T01:52:21.578Z,5.30
2023-04-25T01:57:25.206Z,4.50
2023-04-25T02:02:28.730Z,6.30
2023-04-25T02:07:33.664Z,5.30
2023-04-25T02:12:37.386Z,5.20
2023-04-25T02:17:40.807Z,6.50
2023-04-25T02:22:44.418Z,6.10
2023-04-25T02:27:48.863Z,7.20
2023-04-25T02:32:52.427Z,6.20
2023-04-25T02:37:55.990Z,6.80
2023-04-25T02:42:59.519Z,7.30
2023-04-25T02:48:04.321Z,7.10
2023-04-25T02:53:07.870Z,6.90
2023-04-25T02:58:11.589Z,6.30
2023-04-25T03:03:16.283Z,6.80
2023-04-25T03:08:20.254Z,6.30
2023-04-25T03:13:23.666Z,7.20
2023-04-25T03:18:27.083Z,7.80
2023-04-25T03:23:30.697Z,7.10
2023-04-25T03:28:34.213Z,7.70
2023-04-25T03:33:37.584Z,7.50
2023-04-25T03:38:42.586Z,6.70
2023-04-25T03:43:46.303Z,7.30
2023-04-25T03:48:49.821Z,9.70
2023-04-25T03:53:53.799Z,10.10
2023-04-25T04:04:00.782Z,7.00
2023-04-25T04:09:04.699Z,9.10
2023-04-25T04:14:09.131Z,8.30
2023-04-25T04:19:12.474Z,7.50
2023-04-25T04:24:18.005Z,7.70
2023-04-25T04:29:24.308Z,8.30
2023-04-25T04:34:28.416Z,7.60
2023-04-25T04:39:32.044Z,7.20
2023-04-25T04:44:35.653Z,7.50
2023-04-25T04:49:39.062Z,7.50
2023-04-25T04:54:42.485Z,6.50
2023-04-25T04:59:46.306Z,6.40
2023-04-25T05:04:49.897Z,3.70
2023-04-25T05:09:53.564Z,5.20
2023-04-25T05:14:57.032Z,4.20
2023-04-25T05:20:00.584Z,3.80
2023-04-25T05:25:04.877Z,3.80
2023-04-25T05:30:10.163Z,3.90
2023-04-25T05:35:13.705Z,3.30
2023-04-25T05:40:17.136Z,2.60
2023-04-25T05:45:20.620Z,3.40
2023-04-25T05:50:23.937Z,2.90
2023-04-25T05:55:27.346Z,3.40
2023-04-25T06:00:30.908Z,2.90
2023-04-25T06:05:34.488Z,3.30
2023-04-25T06:10:38.795Z,2.90
2023-04-25T06:15:42.325Z,2.50
2023-04-25T06:20:45.830Z,3.20
2023-04-25T06:25:49.539Z,2.80
2023-04-25T06:30:52.954Z,3.00
2023-04-25T06:35:56.489Z,3.00
2023-04-25T06:40:59.994Z,2.80
2023-04-25T06:46:03.610Z,3.70
2023-04-25T06:51:07.121Z,4.10
2023-04-25T06:56:11.454Z,3.50
2023-04-25T07:01:15.566Z,9.90
2023-04-25T07:06:19.209Z,12.30
2023-04-25T07:11:22.735Z,16.60
2023-04-25T07:16:26.165Z,4.40
2023-04-25T07:21:29.862Z,3.50
2023-04-25T07:26:33.580Z,3.20
2023-04-25T07:31:37.526Z,4.20
2023-04-25T07:36:41.430Z,3.60
2023-04-25T07:46:48.560Z,4.10
2023-04-25T07:51:52.180Z,3.00
2023-04-25T07:56:56.004Z,2.90
2023-04-25T08:01:59.419Z,4.20
2023-04-25T08:07:02.938Z,4.40
2023-04-25T08:12:06.757Z,3.20
2023-04-25T08:17:11.294Z,2.90
2023-04-25T08:22:15.814Z,2.80
2023-04-25T08:27:22.204Z,3.50
2023-04-25T08:32:25.647Z,3.30
2023-04-25T08:37:28.946Z,3.50
2023-04-25T08:42:34.353Z,3.80
2023-04-25T08:47:39.818Z,4.40
2023-04-25T08:52:50.799Z,3.20
2023-04-25T08:57:56.099Z,4.00
2023-04-25T09:03:00.826Z,4.50
2023-04-25T09:08:04.442Z,3.70
2023-04-25T09:13:07.898Z,4.10
2023-04-25T09:18:11.275Z,3.00
2023-04-25T09:23:16.499Z,3.60
2023-04-25T09:28:29.268Z,3.40
2023-04-25T09:33:38.337Z,3.60
2023-04-25T09:38:46.868Z,3.50
2023-04-25T09:43:51.614Z,2.90
2023-04-25T09:48:55.264Z,3.40
2023-04-25T09:53:58.841Z,2.50
2023-04-25T09:59:04.225Z,3.00
2023-04-25T10:04:12.391Z,3.30
2023-04-25T10:09:19.346Z,2.80
2023-04-25T10:14:23.655Z,2.60
2023-04-25T10:19:28.198Z,2.90
2023-04-25T10:24:32.942Z,2.30
2023-04-25T10:29:36.761Z,2.50
2023-04-25T10:34:44.167Z,2.20
2023-04-25T10:39:47.990Z,2.10
2023-04-25T10:45:06.912Z,2.00
2023-04-25T10:50:10.738Z,2.90
2023-04-25T10:55:14.354Z,2.90
2023-04-25T11:00:20.282Z,2.40
2023-04-25T11:05:33.161Z,2.70
2023-04-25T11:10:38.194Z,2.00
2023-04-25T11:15:41.797Z,2.30
2023-04-25T11:20:45.934Z,2.20
2023-04-25T11:25:51.072Z,2.10
2023-04-25T11:30:54.485Z,2.80
2023-04-25T11:35:58.105Z,2.40
2023-04-25T11:41:02.170Z,2.30
2023-04-25T11:46:09.520Z,2.40
2023-04-25T11:51:13.302Z,2.40
2023-04-25T11:56:16.781Z,2.90
2023-04-25T12:01:35.194Z,2.20
2023-04-25T12:06:43.577Z,3.20
2023-04-25T12:11:50.055Z,3.40
2023-04-25T12:16:54.102Z,3.30
2023-04-25T12:27:04.442Z,4.00
2023-04-25T12:32:07.839Z,4.10
2023-04-25T12:37:11.664Z,3.40
2023-04-25T12:42:15.210Z,2.00
2023-04-25T12:47:18.699Z,2.40
2023-04-25T12:52:22.022Z,11.50
2023-04-25T12:57:25.826Z,3.00
2023-04-25T13:02:29.465Z,2.50
2023-04-25T13:07:34.148Z,2.40
2023-04-25T13:12:39.373Z,1.70
2023-04-25T13:17:43.697Z,1.40
2023-04-25T13:22:47.441Z,2.30
2023-04-25T13:27:50.989Z,2.30
2023-04-25T13:32:57.520Z,2.20
2023-04-25T13:38:01.988Z,1.90
2023-04-25T13:43:05.891Z,1.90
2023-04-25T13:53:13.417Z,1.50
2023-04-25T13:58:17.003Z,1.70
2023-04-25T14:03:20.709Z,3.80
2023-04-25T14:08:24.228Z,2.50
2023-04-25T14:13:28.114Z,2.00
2023-04-25T14:23:34.881Z,3.00
2023-04-25T14:28:38.387Z,1.80
2023-04-25T14:33:43.939Z,2.10
2023-04-25T14:38:47.921Z,6.50
2023-04-25T14:43:51.810Z,3.90
2023-04-25T14:54:00.882Z,3.10
2023-04-25T14:59:04.498Z,5.10
2023-04-25T15:04:08.264Z,3.70
2023-04-25T15:09:26.331Z,9.40
2023-04-25T15:14:30.503Z,15.10
2023-04-25T15:19:34.026Z,6.30
2023-04-25T15:24:37.850Z,4.60
2023-04-25T15:29:41.562Z,4.10
2023-04-25T15:34:44.964Z,6.60
2023-04-25T15:39:48.522Z,5.80
2023-04-25T15:44:52.118Z,5.40
2023-04-25T15:49:55.853Z,4.10
2023-04-25T15:54:59.452Z,6.90
2023-04-25T16:00:17.433Z,5.30
2023-04-25T16:05:30.446Z,2.70
2023-04-25T16:10:33.940Z,2.50
2023-04-25T16:15:37.609Z,4.20
2023-04-25T16:20:41.296Z,3.40
2023-04-25T16:25:44.767Z,4.00
2023-04-25T16:30:48.224Z,3.70
2023-04-25T16:35:52.883Z,3.70
2023-04-25T16:40:57.097Z,4.20
2023-04-25T16:46:01.429Z,3.40
2023-04-25T16:51:05.605Z,3.00
2023-04-25T16:56:09.176Z,3.10
2023-04-25T17:01:16.362Z,5.60
2023-04-25T17:06:19.996Z,4.30
2023-04-25T17:11:28.332Z,3.50
2023-04-25T17:16:38.824Z,3.50
2023-04-25T17:21:42.739Z,6.60
2023-04-25T17:26:48.610Z,4.80
2023-04-25T17:31:53.817Z,5.10
2023-04-25T17:36:57.271Z,4.00
2023-04-25T17:42:01.163Z,3.60
2023-04-25T17:47:06.086Z,4.00
2023-04-25T17:52:11.311Z,4.50
2023-04-25T17:57:14.698Z,5.90
2023-04-25T18:02:18.523Z,5.70
2023-04-25T18:07:22.160Z,5.20
2023-04-25T18:12:27.927Z,2.60
2023-04-25T18:17:31.612Z,4.50
2023-04-25T18:22:36.290Z,4.20
2023-04-25T18:27:41.003Z,4.70
2023-04-25T18:32:44.912Z,4.50
2023-04-25T18:37:48.777Z,3.70
2023-04-25T18:42:52.404Z,4.40
2023-04-25T18:47:56.062Z,4.60
2023-04-25T18:53:00.764Z,4.10
2023-04-25T18:58:04.180Z,4.40
2023-04-25T19:03:08.046Z,4.70
2023-04-25T19:08:11.921Z,5.00
2023-04-25T19:13:15.331Z,5.00
2023-04-25T19:18:18.952Z,6.30
2023-04-25T19:23:25.697Z,6.40
2023-04-25T19:28:30.663Z,4.20
2023-04-25T19:33:34.055Z,5.80
2023-04-25T19:38:37.354Z,7.00
2023-04-25T19:43:40.752Z,9.00
2023-04-25T19:48:44.471Z,5.30
2023-04-25T19:53:47.849Z,5.20
2023-04-25T19:58:51.709Z,4.90
2023-04-25T20:14:05.732Z,4.40
2023-04-25T20:19:09.024Z,7.70
2023-04-25T20:24:12.336Z,7.30
2023-04-25T20:29:16.010Z,5.70
2023-04-25T20:34:21.836Z,6.10
2023-04-25T20:39:34.568Z,5.80
2023-04-25T20:44:40.988Z,5.50
2023-04-25T20:49:44.382Z,6.10
2023-04-25T20:54:54.395Z,6.90
2023-04-25T20:59:58.510Z,5.40
2023-04-25T21:05:06.977Z,5.10
2023-04-25T21:10:12.935Z,5.40
2023-04-25T21:15:28.617Z,6.40
2023-04-25T21:20:32.891Z,6.90
2023-04-25T21:25:59.985Z,4.80
2023-04-25T21:31:12.001Z,4.10
2023-04-25T21:36:41.740Z,7.70
2023-04-25T21:41:51.237Z,5.00
2023-04-25T21:47:16.085Z,5.00
2023-04-25T21:52:25.335Z,4.50
2023-04-25T21:57:29.933Z,4.50
2023-04-25T22:02:34.784Z,6.00
2023-04-25T22:08:04.377Z,3.90
2023-04-25T22:13:50.618Z,4.40
2023-04-25T22:19:26.030Z,5.80
2023-04-25T22:24:56.081Z,4.40
2023-04-25T22:30:59.474Z,5.70
2023-04-25T22:36:11.834Z,4.90
2023-04-25T22:41:22.218Z,6.50
2023-04-25T22:46:29.313Z,6.60
2023-04-25T22:51:34.206Z,7.60
2023-04-25T22:56:39.776Z,7.20
2023-04-25T23:01:50.448Z,6.20
2023-04-25T23:06:54.330Z,5.30
2023-04-25T23:11:59.289Z,4.70
2023-04-25T23:17:02.676Z,4.80
2023-04-25T23:22:06.301Z,5.10
2023-04-25T23:27:09.899Z,8.80
2023-04-25T23:32:13.874Z,4.10
2023-04-25T23:37:17.248Z,5.10
2023-04-25T23:42:20.753Z,4.80
2023-04-25T23:47:24.160Z,5.10
2023-04-25T23:52:28.634Z,5.50
2023-04-25T23:57:32.553Z,6.60
